Overview Statistics Trail Chart Weather Telemetry Raw packets
 

This is the latest recevied weather packets stored in our database for station/object KO4DYK. If no packets are shown the sender has not sent any weather packets the latest 10 day(s).

<< 104 105 106 107 108 109 110 >>
Time Temp. Humidity Pressure Rain* Wind** Luminosity Snow
1787870660 31.11° C 66% 1015.3 hPa 0 mm - 52 W/m² -
1787870355 31.67° C 64% 1015.2 hPa 0 mm - 58 W/m² -
1787870051 31.67° C 64% 1015.2 hPa 0 mm - 60 W/m² -
1787869749 32.22° C 62% 1015.2 hPa 0 mm - 184 W/m² -
1787869449 32.22° C 62% 1015.3 hPa 0 mm - 273 W/m² -
1787869144 32.78° C 61% 1015.4 hPa 0 mm - 95 W/m² -
1787868843 32.22° C 58% 1015.1 hPa 0 mm - 283 W/m² -
1787868541 32.22° C 59% 1015.2 hPa 0 mm - 282 W/m² -
1787868241 32.78° C 58% 1015.3 hPa 0 mm - 173 W/m² -
1787867936 32.78° C 57% 1015.1 hPa 0 mm - 88 W/m² -
1787867632 32.22° C 60% 1015.1 hPa 0 mm - 366 W/m² -
1787867332 32.78° C 59% 1015.2 hPa 0 mm - 71 W/m² -
1787867028 33.33° C 57% 1015.1 hPa 0 mm - 95 W/m² -
1787866723 33.89° C 55% 1015.1 hPa 0 mm - 424 W/m² -
1787866422 34.44° C 53% 1015 hPa 0 mm - 421 W/m² -
1787866116 34.44° C 54% 1015.2 hPa 0 mm - 466 W/m² -
1787865811 34.44° C 53% 1015.1 hPa 0 mm - 159 W/m² -
1787865507 35° C 53% 1015 hPa 0 mm - 107 W/m² -
1787865202 35° C 53% 1015.2 hPa 0 mm - 493 W/m² -
1787864898 33.89° C 55% 1015.2 hPa 0 mm - 469 W/m² -
1787864598 34.44° C 53% 1015.5 hPa 0 mm - 492 W/m² -
1787864292 35° C 54% 1015.3 hPa 0 mm - 497 W/m² -
1787863987 33.89° C 54% 1015.2 hPa 0 mm - 505 W/m² -
1787863685 35° C 52% 1015.2 hPa 0 mm - 521 W/m² -
1787863384 33.89° C 54% 1015.4 hPa 0 mm - 512 W/m² -

* Rain latest hour (hover to see other rain measurements)
** Current wind speed in m/s (hover to see current wind gust speed)